createdAt,value
2023-02-06T00:01:47.327Z,79.03
2023-02-06T00:04:33.110Z,79.44
2023-02-06T00:07:18.496Z,78.55
2023-02-06T00:10:04.292Z,79.61
2023-02-06T00:12:50.444Z,79.90
2023-02-06T00:15:36.453Z,78.76
2023-02-06T00:18:22.015Z,79.10
2023-02-06T00:21:07.573Z,78.42
2023-02-06T00:23:58.653Z,78.74
2023-02-06T00:26:44.801Z,78.21
2023-02-06T00:29:30.829Z,78.44
2023-02-06T00:32:17.545Z,78.22
2023-02-06T00:35:04.234Z,77.85
2023-02-06T00:37:50.375Z,77.85
2023-02-06T00:40:38.838Z,78.05
2023-02-06T00:43:24.128Z,78.49
2023-02-06T00:46:09.660Z,77.78
2023-02-06T00:48:56.436Z,77.86
2023-02-06T00:51:42.645Z,78.43
2023-02-06T00:54:27.979Z,77.59
2023-02-06T00:57:13.969Z,77.45
2023-02-06T00:59:59.691Z,76.64
2023-02-06T01:02:45.247Z,77.34
2023-02-06T01:05:32.257Z,77.33
2023-02-06T01:08:18.704Z,77.25
2023-02-06T01:11:20.417Z,77.39
2023-02-06T01:14:06.532Z,77.48
2023-02-06T01:16:51.983Z,77.41
2023-02-06T01:19:41.309Z,77.51
2023-02-06T01:22:29.215Z,78.05
2023-02-06T01:25:14.836Z,77.18
2023-02-06T01:28:00.333Z,76.93
2023-02-06T01:30:45.874Z,76.68
2023-02-06T01:33:32.003Z,76.79
2023-02-06T01:36:23.404Z,77.32
2023-02-06T01:39:10.624Z,77.07
2023-02-06T01:41:56.398Z,76.86
2023-02-06T01:44:42.313Z,77.29
2023-02-06T01:47:28.497Z,77.15
2023-02-06T01:50:28.535Z,76.48
2023-02-06T01:53:17.330Z,76.68
2023-02-06T01:56:06.199Z,76.16
2023-02-06T01:58:58.009Z,76.16
2023-02-06T02:01:45.698Z,75.83
2023-02-06T02:04:33.428Z,75.85
2023-02-06T02:07:32.169Z,74.68
2023-02-06T02:10:18.376Z,75.41
2023-02-06T02:13:03.763Z,75.54
2023-02-06T02:16:03.163Z,75.66
2023-02-06T02:19:29.041Z,76.27
2023-02-06T02:23:07.192Z,74.91
2023-02-06T02:26:27.132Z,75.83
2023-02-06T02:29:34.162Z,74.77
2023-02-06T02:32:38.901Z,74.81
2023-02-06T02:35:55.233Z,74.36
2023-02-06T02:38:57.649Z,74.95
2023-02-06T02:41:49.663Z,75.79
2023-02-06T02:44:47.405Z,75.42
2023-02-06T02:47:44.544Z,75.62
2023-02-06T02:50:31.311Z,75.40
2023-02-06T02:53:17.478Z,75.67
2023-02-06T02:56:14.894Z,74.04
2023-02-06T02:59:09.339Z,75.08
2023-02-06T03:02:03.425Z,75.12
2023-02-06T03:05:11.606Z,74.67
2023-02-06T03:08:15.912Z,74.56
2023-02-06T03:11:18.510Z,74.67
2023-02-06T03:14:28.136Z,74.55
2023-02-06T03:17:21.095Z,74.64
2023-02-06T03:20:09.847Z,74.40
2023-02-06T03:23:00.125Z,74.54
2023-02-06T03:25:48.104Z,74.37
2023-02-06T03:28:38.902Z,75.07
2023-02-06T03:31:51.354Z,74.25
2023-02-06T03:34:52.111Z,74.45
2023-02-06T03:37:38.370Z,74.00
2023-02-06T03:40:26.939Z,74.55
2023-02-06T03:43:18.650Z,73.39
2023-02-06T03:46:06.435Z,74.85
2023-02-06T03:48:55.353Z,74.04
2023-02-06T03:51:50.197Z,74.51
2023-02-06T03:54:39.335Z,73.06
2023-02-06T03:57:28.101Z,73.23
2023-02-06T04:00:14.079Z,72.90
2023-02-06T04:03:00.619Z,73.16
2023-02-06T04:05:46.139Z,73.36
2023-02-06T04:08:31.513Z,72.83
2023-02-06T04:11:17.288Z,72.96
2023-02-06T04:14:03.095Z,73.40
2023-02-06T04:16:48.706Z,73.09
2023-02-06T04:19:34.994Z,72.52
2023-02-06T04:22:21.097Z,72.43
2023-02-06T04:25:07.441Z,72.06
2023-02-06T04:27:53.094Z,72.51
2023-02-06T04:30:38.769Z,72.33
2023-02-06T04:33:24.533Z,72.44
2023-02-06T04:36:10.604Z,71.83
2023-02-06T04:38:56.204Z,72.20
2023-02-06T04:41:41.465Z,72.30
2023-02-06T04:44:27.214Z,71.76
2023-02-06T04:47:12.617Z,71.60
2023-02-06T04:49:58.088Z,72.10
2023-02-06T04:52:43.463Z,71.80
2023-02-06T04:55:28.940Z,71.91
2023-02-06T04:58:14.997Z,71.60
2023-02-06T05:01:01.368Z,71.46
2023-02-06T05:03:47.892Z,72.24
2023-02-06T05:06:34.654Z,71.17
2023-02-06T05:09:20.278Z,71.52
2023-02-06T05:12:05.936Z,72.09
2023-02-06T05:14:51.807Z,71.30
2023-02-06T05:17:37.349Z,71.30
2023-02-06T05:20:22.827Z,72.46
2023-02-06T05:23:09.346Z,72.26
2023-02-06T05:25:55.364Z,71.44
2023-02-06T05:28:43.943Z,71.28
2023-02-06T05:31:30.727Z,72.10
2023-02-06T05:34:16.442Z,71.69
2023-02-06T05:37:02.325Z,71.80
2023-02-06T05:39:47.829Z,72.82
2023-02-06T05:42:33.310Z,71.93
2023-02-06T05:45:23.652Z,72.30
2023-02-06T05:48:10.749Z,72.08
2023-02-06T05:50:58.330Z,72.06
2023-02-06T05:53:44.238Z,72.16
2023-02-06T05:56:30.357Z,71.80
2023-02-06T05:59:16.229Z,72.57
2023-02-06T06:02:02.349Z,71.81
2023-02-06T06:04:49.051Z,71.69
2023-02-06T06:07:35.312Z,72.11
2023-02-06T06:10:21.298Z,72.16
2023-02-06T06:13:08.482Z,71.90
2023-02-06T06:15:54.470Z,72.19
2023-02-06T06:18:40.562Z,71.51
2023-02-06T06:21:25.916Z,71.45
2023-02-06T06:24:12.895Z,71.25
2023-02-06T06:27:00.069Z,71.95
2023-02-06T06:29:46.233Z,71.59
2023-02-06T06:32:32.021Z,73.04
2023-02-06T06:35:21.351Z,71.32
2023-02-06T06:38:06.767Z,71.66
2023-02-06T06:40:52.966Z,72.13
2023-02-06T06:43:39.471Z,71.91
2023-02-06T06:46:27.023Z,71.66
2023-02-06T06:49:13.274Z,70.81
2023-02-06T06:51:59.727Z,70.96
2023-02-06T06:54:45.715Z,70.87
2023-02-06T06:57:32.687Z,71.06
2023-02-06T07:00:19.184Z,70.54
2023-02-06T07:03:08.030Z,71.23
2023-02-06T07:05:57.160Z,70.54
2023-02-06T07:08:43.805Z,70.65
2023-02-06T07:11:31.985Z,70.58
2023-02-06T07:14:18.306Z,70.14
2023-02-06T07:17:04.476Z,70.63
2023-02-06T07:19:53.088Z,70.09
2023-02-06T07:22:39.342Z,70.42
2023-02-06T07:25:25.196Z,70.30
2023-02-06T07:28:10.660Z,69.89
2023-02-06T07:31:03.034Z,70.24
2023-02-06T07:33:49.111Z,69.73
2023-02-06T07:36:37.685Z,70.21
2023-02-06T07:39:23.427Z,69.60
2023-02-06T07:42:09.561Z,69.79
2023-02-06T07:45:12.073Z,70.39
2023-02-06T07:47:58.226Z,70.36
2023-02-06T07:50:45.287Z,69.60
2023-02-06T07:53:32.422Z,70.17
2023-02-06T07:56:20.361Z,70.25
2023-02-06T07:59:06.821Z,69.96
2023-02-06T08:01:52.905Z,70.23
2023-02-06T08:04:42.968Z,70.15
2023-02-06T08:07:28.918Z,69.98
2023-02-06T08:10:14.959Z,70.09
2023-02-06T08:13:01.354Z,69.94
2023-02-06T08:15:47.053Z,70.27
2023-02-06T08:18:35.952Z,70.02
2023-02-06T08:21:24.522Z,70.07
2023-02-06T08:24:12.220Z,69.99
2023-02-06T08:26:58.181Z,69.25
2023-02-06T08:29:44.034Z,69.85
2023-02-06T08:32:34.788Z,69.39
2023-02-06T08:35:20.716Z,68.54
2023-02-06T08:38:07.415Z,67.98
2023-02-06T08:40:53.913Z,68.18
2023-02-06T08:43:40.195Z,68.77
2023-02-06T08:46:29.963Z,68.47
2023-02-06T08:49:20.822Z,67.91
2023-02-06T08:52:06.434Z,67.97
2023-02-06T08:54:52.986Z,67.55
2023-02-06T08:57:42.153Z,66.99
2023-02-06T09:00:27.745Z,67.43
2023-02-06T09:03:13.194Z,67.74
2023-02-06T09:06:10.256Z,66.88
2023-02-06T09:08:57.980Z,67.14
2023-02-06T09:11:44.483Z,67.49
2023-02-06T09:14:30.769Z,67.90
2023-02-06T09:17:16.344Z,67.13
2023-02-06T09:20:03.139Z,67.56
2023-02-06T09:22:48.572Z,67.33
2023-02-06T09:25:34.817Z,67.75
2023-02-06T09:28:20.520Z,66.97
2023-02-06T09:31:10.271Z,67.35
2023-02-06T09:33:57.214Z,66.19
2023-02-06T09:36:43.271Z,66.29
2023-02-06T09:39:29.984Z,65.82
2023-02-06T09:42:37.829Z,67.26
2023-02-06T09:45:27.537Z,67.18
2023-02-06T09:48:25.003Z,66.85
2023-02-06T09:51:23.192Z,66.62
2023-02-06T09:54:39.712Z,67.02
2023-02-06T09:57:54.930Z,66.38
2023-02-06T10:00:53.258Z,66.60
2023-02-06T10:03:59.354Z,67.39
2023-02-06T10:07:12.988Z,66.96
2023-02-06T10:10:10.563Z,68.03
2023-02-06T10:13:05.177Z,67.54
2023-02-06T10:15:58.546Z,68.03
2023-02-06T10:18:54.780Z,68.39
2023-02-06T10:21:48.374Z,68.24
2023-02-06T10:24:49.223Z,67.52
2023-02-06T10:27:38.082Z,67.38
2023-02-06T10:30:37.880Z,67.07
2023-02-06T10:33:41.923Z,67.45
2023-02-06T10:37:01.961Z,67.67
2023-02-06T10:40:05.230Z,66.99
2023-02-06T10:43:18.754Z,66.52
2023-02-06T10:46:14.033Z,66.24
2023-02-06T10:49:03.581Z,66.83
2023-02-06T10:51:54.367Z,67.07
2023-02-06T10:54:48.473Z,65.94
2023-02-06T10:57:37.117Z,65.67
2023-02-06T11:00:27.164Z,66.79
2023-02-06T11:03:19.145Z,66.58
2023-02-06T11:06:04.704Z,66.31
2023-02-06T11:08:50.464Z,67.15
2023-02-06T11:11:39.925Z,66.41
2023-02-06T11:14:30.986Z,66.00
2023-02-06T11:17:19.403Z,65.42
2023-02-06T11:20:24.987Z,65.92
2023-02-06T11:23:20.060Z,65.92
2023-02-06T11:26:09.081Z,65.55
2023-02-06T11:28:58.452Z,65.16
2023-02-06T11:32:00.395Z,65.30
2023-02-06T11:34:57.383Z,65.79
2023-02-06T11:37:43.116Z,65.07
2023-02-06T11:40:28.792Z,64.97
2023-02-06T11:43:24.663Z,64.73
2023-02-06T11:46:37.527Z,64.52
2023-02-06T11:49:29.796Z,64.61
2023-02-06T11:52:33.690Z,64.86
2023-02-06T11:55:24.275Z,64.08
2023-02-06T11:58:14.387Z,62.29
2023-02-06T12:01:05.590Z,61.64
2023-02-06T12:03:59.018Z,61.08
2023-02-06T12:06:45.950Z,61.15
2023-02-06T12:09:31.756Z,62.03
2023-02-06T12:12:39.506Z,62.14
2023-02-06T12:15:46.868Z,62.26
2023-02-06T12:18:39.758Z,61.35
2023-02-06T12:21:50.394Z,62.58
2023-02-06T12:24:44.542Z,62.65
2023-02-06T12:27:39.615Z,62.00
2023-02-06T12:30:45.432Z,62.32
2023-02-06T12:33:38.466Z,62.36
2023-02-06T12:36:34.118Z,61.64
2023-02-06T12:39:23.015Z,63.06
2023-02-06T12:42:33.358Z,63.82
2023-02-06T12:45:47.231Z,63.69
2023-02-06T12:49:02.618Z,63.81
2023-02-06T12:51:54.705Z,63.41
2023-02-06T12:54:50.794Z,63.62
2023-02-06T12:57:38.773Z,63.25
2023-02-06T13:00:59.962Z,62.84
2023-02-06T13:04:00.603Z,63.00
2023-02-06T13:07:01.236Z,63.22
2023-02-06T13:09:54.106Z,62.87
2023-02-06T13:12:41.207Z,62.90
2023-02-06T13:15:38.888Z,62.99
2023-02-06T13:18:45.028Z,62.63
2023-02-06T13:21:37.739Z,61.90
2023-02-06T13:24:23.452Z,61.61
2023-02-06T13:27:08.936Z,61.28
2023-02-06T13:29:55.835Z,61.59
2023-02-06T13:32:46.232Z,61.82
2023-02-06T13:35:34.911Z,60.98
2023-02-06T13:38:33.726Z,61.16
2023-02-06T13:41:28.809Z,61.03
2023-02-06T13:44:35.177Z,60.19
2023-02-06T13:47:51.700Z,58.01
2023-02-06T13:51:02.996Z,59.80
2023-02-06T13:54:17.256Z,59.65
2023-02-06T13:57:23.648Z,60.70
2023-02-06T14:00:15.758Z,59.58
2023-02-06T14:03:23.784Z,60.16
2023-02-06T14:06:45.214Z,60.24
2023-02-06T14:10:13.953Z,59.12
2023-02-06T14:13:18.403Z,60.39
2023-02-06T14:16:09.173Z,60.23
2023-02-06T14:19:17.805Z,61.35
2023-02-06T14:22:32.444Z,60.67
2023-02-06T14:25:36.702Z,61.27
2023-02-06T14:28:33.267Z,61.18
2023-02-06T14:31:35.247Z,61.25
2023-02-06T14:34:49.142Z,60.96
2023-02-06T14:37:45.259Z,61.27
2023-02-06T14:40:34.756Z,61.70
2023-02-06T14:43:29.667Z,61.79
2023-02-06T14:46:21.846Z,61.82
2023-02-06T14:49:15.013Z,63.42
2023-02-06T14:52:01.346Z,62.77
2023-02-06T14:54:46.568Z,62.28
2023-02-06T14:57:34.837Z,62.43
2023-02-06T15:00:24.602Z,62.36
2023-02-06T15:03:21.569Z,61.83
2023-02-06T15:06:12.772Z,62.22
2023-02-06T15:08:58.285Z,61.98
2023-02-06T15:11:51.333Z,60.85
2023-02-06T15:14:37.453Z,61.20
2023-02-06T15:17:29.277Z,61.05
2023-02-06T15:20:29.569Z,60.89
2023-02-06T15:23:35.916Z,59.93
2023-02-06T15:26:42.079Z,60.06
2023-02-06T15:29:28.662Z,60.44
2023-02-06T15:32:36.435Z,60.36
2023-02-06T15:35:35.649Z,61.26
2023-02-06T15:38:26.123Z,61.84
2023-02-06T15:41:16.169Z,62.01
2023-02-06T15:44:27.202Z,62.00
2023-02-06T15:47:25.216Z,62.64
2023-02-06T15:50:29.164Z,63.01
2023-02-06T15:53:32.145Z,62.87
2023-02-06T15:56:34.176Z,63.10
2023-02-06T15:59:28.109Z,62.59
2023-02-06T16:02:23.702Z,62.48
2023-02-06T16:05:27.253Z,62.55
2023-02-06T16:08:38.086Z,61.72
2023-02-06T16:11:51.439Z,62.68
2023-02-06T16:14:42.205Z,62.60
2023-02-06T16:17:33.539Z,63.13
2023-02-06T16:20:42.921Z,63.30
2023-02-06T16:23:31.122Z,62.11
2023-02-06T16:26:22.766Z,61.94
2023-02-06T16:29:08.554Z,61.69
2023-02-06T16:32:09.545Z,61.08
2023-02-06T16:34:55.694Z,60.94
2023-02-06T16:37:45.300Z,61.12
2023-02-06T16:40:40.352Z,60.78
2023-02-06T16:43:33.687Z,60.16
2023-02-06T16:46:27.824Z,60.39
2023-02-06T16:49:23.285Z,61.68
2023-02-06T16:52:18.399Z,61.23
2023-02-06T16:55:04.601Z,60.85
2023-02-06T16:57:59.782Z,60.57
2023-02-06T17:00:53.826Z,59.43
2023-02-06T17:03:42.287Z,59.19
2023-02-06T17:06:33.472Z,59.20
2023-02-06T17:09:22.714Z,60.06
2023-02-06T17:12:20.642Z,59.81
2023-02-06T17:15:14.670Z,60.14
2023-02-06T17:18:01.182Z,60.71
2023-02-06T17:20:49.714Z,60.92
2023-02-06T17:23:35.545Z,60.70
2023-02-06T17:26:23.055Z,60.94
2023-02-06T17:29:14.546Z,61.26
2023-02-06T17:32:01.059Z,61.67
2023-02-06T17:34:46.708Z,61.30
2023-02-06T17:37:32.913Z,61.79
2023-02-06T17:40:23.943Z,62.66
2023-02-06T17:43:09.909Z,62.31
2023-02-06T17:45:55.895Z,62.46
2023-02-06T17:48:43.473Z,62.32
2023-02-06T17:51:30.929Z,62.85
2023-02-06T17:54:19.623Z,62.23
2023-02-06T17:57:05.846Z,62.58
2023-02-06T17:59:55.672Z,62.33
2023-02-06T18:02:48.814Z,62.78
2023-02-06T18:05:41.636Z,62.87
2023-02-06T18:08:30.031Z,63.57
2023-02-06T18:11:21.554Z,62.55
2023-02-06T18:14:20.832Z,63.13
2023-02-06T18:17:08.167Z,62.53
2023-02-06T18:19:53.930Z,63.71
2023-02-06T18:22:42.449Z,63.20
2023-02-06T18:25:28.779Z,63.60
2023-02-06T18:28:17.407Z,64.09
2023-02-06T18:31:03.341Z,64.33
2023-02-06T18:33:49.250Z,63.91
2023-02-06T18:36:36.821Z,64.63
2023-02-06T18:39:22.857Z,64.15
2023-02-06T18:42:46.463Z,64.28
2023-02-06T18:45:37.029Z,64.23
2023-02-06T18:48:25.402Z,64.52
2023-02-06T18:51:11.345Z,64.86
2023-02-06T18:53:59.948Z,64.32
2023-02-06T18:56:49.529Z,65.54
2023-02-06T18:59:43.212Z,65.85
2023-02-06T19:02:31.281Z,66.06
2023-02-06T19:05:23.580Z,66.38
2023-02-06T19:08:46.333Z,66.72
2023-02-06T19:11:36.075Z,66.28
2023-02-06T19:14:25.475Z,67.40
2023-02-06T19:17:13.071Z,67.53
2023-02-06T19:20:02.765Z,67.67
2023-02-06T19:22:54.628Z,67.89
2023-02-06T19:25:41.707Z,68.16
2023-02-06T19:28:27.903Z,67.91
2023-02-06T19:31:14.093Z,68.12
2023-02-06T19:34:01.965Z,67.70
2023-02-06T19:36:47.816Z,68.25
2023-02-06T19:39:34.647Z,67.25
2023-02-06T19:42:20.112Z,66.66
2023-02-06T19:45:07.405Z,66.65
2023-02-06T19:47:53.161Z,66.96
2023-02-06T19:50:41.963Z,67.10
2023-02-06T19:53:34.260Z,67.39
2023-02-06T19:56:27.454Z,68.27
2023-02-06T19:59:25.294Z,67.93
2023-02-06T20:02:15.096Z,67.78
2023-02-06T20:05:02.546Z,67.61
2023-02-06T20:07:48.919Z,67.65
2023-02-06T20:10:38.292Z,67.55
2023-02-06T20:13:24.639Z,68.02
2023-02-06T20:16:16.370Z,68.03
2023-02-06T20:19:09.138Z,67.73
2023-02-06T20:21:58.658Z,67.16
2023-02-06T20:24:44.757Z,66.91
2023-02-06T20:27:59.356Z,66.35
2023-02-06T20:30:45.791Z,66.36
2023-02-06T20:33:33.712Z,66.23
2023-02-06T20:36:22.782Z,65.45
2023-02-06T20:39:12.049Z,66.48
2023-02-06T20:41:57.689Z,66.40
2023-02-06T20:44:44.219Z,67.54
2023-02-06T20:47:31.015Z,68.36
2023-02-06T20:50:17.190Z,68.39
2023-02-06T20:53:02.719Z,69.17
2023-02-06T20:55:48.188Z,68.95
2023-02-06T20:58:33.735Z,70.51
2023-02-06T21:01:26.167Z,69.92
2023-02-06T21:04:17.642Z,70.67
2023-02-06T21:07:03.804Z,70.42
2023-02-06T21:09:50.111Z,70.44
2023-02-06T21:12:36.910Z,71.01
2023-02-06T21:15:22.342Z,70.86
2023-02-06T21:18:08.228Z,70.63
2023-02-06T21:20:56.113Z,70.98
2023-02-06T21:23:42.723Z,70.97
2023-02-06T21:26:29.281Z,71.40
2023-02-06T21:29:15.960Z,71.82
2023-02-06T21:32:13.353Z,71.78
2023-02-06T21:35:00.031Z,72.08
2023-02-06T21:37:45.961Z,72.35
2023-02-06T21:40:31.570Z,72.29
2023-02-06T21:43:17.364Z,72.62
2023-02-06T21:46:03.687Z,72.36
2023-02-06T21:48:54.066Z,72.50
2023-02-06T21:51:39.759Z,72.50
2023-02-06T21:54:25.276Z,72.24
2023-02-06T21:57:11.438Z,72.34
2023-02-06T21:59:56.944Z,72.13
2023-02-06T22:02:42.663Z,71.51
2023-02-06T22:05:29.000Z,71.02
2023-02-06T22:08:14.735Z,70.98
2023-02-06T22:11:00.418Z,71.10
2023-02-06T22:13:46.437Z,71.08
2023-02-06T22:16:32.033Z,71.42
2023-02-06T22:19:17.944Z,71.57
2023-02-06T22:22:04.291Z,71.83
2023-02-06T22:24:50.980Z,71.92
2023-02-06T22:27:37.230Z,71.93
2023-02-06T22:30:24.511Z,71.92
2023-02-06T22:33:09.821Z,72.41
2023-02-06T22:35:55.209Z,72.42
2023-02-06T22:38:43.414Z,72.75
2023-02-06T22:41:29.996Z,72.46
2023-02-06T22:44:17.051Z,72.82
2023-02-06T22:47:02.486Z,73.03
2023-02-06T22:49:50.825Z,72.49
2023-02-06T22:52:54.991Z,72.54
2023-02-06T22:55:59.082Z,72.46
2023-02-06T22:58:44.907Z,72.33
2023-02-06T23:01:36.580Z,72.22
2023-02-06T23:04:25.313Z,71.96
2023-02-06T23:07:10.759Z,72.12
2023-02-06T23:09:56.295Z,72.04
2023-02-06T23:12:41.992Z,72.00
2023-02-06T23:15:27.562Z,72.27
2023-02-06T23:18:13.099Z,72.50
2023-02-06T23:21:06.810Z,71.94
2023-02-06T23:23:55.071Z,72.36
2023-02-06T23:26:42.585Z,72.45
2023-02-06T23:29:28.481Z,71.78
2023-02-06T23:32:14.246Z,71.73
2023-02-06T23:34:59.872Z,71.80
2023-02-06T23:37:45.596Z,72.02
2023-02-06T23:40:31.850Z,71.93
2023-02-06T23:43:17.963Z,72.00
2023-02-06T23:46:04.870Z,71.92
2023-02-06T23:48:51.903Z,71.84
2023-02-06T23:51:38.294Z,71.08
2023-02-06T23:54:23.718Z,71.23
2023-02-06T23:57:09.138Z,71.46
2023-02-06T23:59:55.420Z,71.59
